Kezdőlap
METAR-TAF:

METAR-TAF

Repülőterek :

Mitiga International Airport

Tripoli, Líbia

földrajzi szélesség: 32-54N, földrajzi hosszúság: 13-17E, magasság: 11 m

METAR: hiányzik

Idő: 07:36 (05:36 UTC)

Előrejelzés

A jelentés 36 perccel ezelõtt készült, 05:00 UTC
Az előrejelzés 14-én 06 óra UTC és 14-én 15 óra UTC között érvényes
Különbözõ irányokból fújó szél 2 kt
Látótávolság: 8000 m
Kevés felhő 2500 lábon
Szórványos felhőzet 8000 lábon
14-én 10 óra UTC és 14-én 12 óra UTC között fokozatosan kialakuló
Északi szél 12 kt

TAF: HLLM 140500Z 1406/1415 VRB02KT 8000 FEW025 SCT080 BECMG 1410/1412 36012KT

Meteorológiai megfigyelések és előrejelzések több, mint 4000 repülőtéren (METAR és TAF jelentéseket).

A térképen piros és sárga pontok jelzik az elérhető meteorológiai állomásokat.

Mozgassa az egeret a pont fölött, hogy megjelenjen az állomás neve.

Azután kattintson az időjárási megfigyelések és előrejelzések megtekintéséhez.

A térkép megváltoztatása: kattintson a fekete keresztel jelölt zöld gombra ráközelítéshez, a vonallal jelölt zöld gombra távolításhoz, vagy a zöld nyilakra a szomszédos térképek eléréséhez.


METAR-TAF: